Time;durP1;ratioP1;P1;durP2;ratioP2;P2;SDS_P1;SDS_P2;PMS_P1;PMS_P2;Temp;Humidity;BMP_temperature;BMP_pressure;BME280_temperature;BME280_humidity;BME280_pressure;Samples;Min_cycle;Max_cycle;Signal;HPM_P1;HPM_P2
2021/12/31 00:01:43;;;;;;;7.97;3.47;;;13.30;99.90;;;;;;5033613;28;20086;-59
2021/12/31 00:04:08;;;;;;;8.48;2.75;;;13.30;99.90;;;;;;5034458;28;20411;-59
2021/12/31 00:06:36;;;;;;;6.80;2.88;;;13.30;99.90;;;;;;5034010;28;20368;-59
2021/12/31 00:09:03;;;;;;;9.18;3.13;;;13.30;99.90;;;;;;5032403;28;20018;-59
2021/12/31 00:11:29;;;;;;;8.05;3.25;;;13.30;99.90;;;;;;5034160;28;20036;-59
2021/12/31 00:13:54;;;;;;;7.63;3.13;;;13.30;99.90;;;;;;5033922;28;20021;-59
2021/12/31 00:16:20;;;;;;;10.43;3.03;;;13.30;99.90;;;;;;5033650;28;20033;-59
2021/12/31 00:18:45;;;;;;;13.52;3.58;;;13.30;99.90;;;;;;5033290;28;20037;-59
2021/12/31 00:21:11;;;;;;;13.93;3.22;;;13.30;99.90;;;;;;5032900;28;20083;-59
2021/12/31 00:23:37;;;;;;;9.02;3.28;;;13.30;99.90;;;;;;5034154;28;20056;-59
2021/12/31 00:26:02;;;;;;;10.40;3.03;;;13.30;99.90;;;;;;5033620;28;20054;-59
2021/12/31 00:28:28;;;;;;;8.73;3.47;;;13.30;99.90;;;;;;5033282;28;20038;-59
2021/12/31 00:30:55;;;;;;;11.90;3.10;;;13.30;99.90;;;;;;5032667;28;20097;-59
2021/12/31 00:33:23;;;;;;;12.20;3.60;;;13.30;99.90;;;;;;5033633;28;20491;-59
2021/12/31 00:35:49;;;;;;;8.13;2.70;;;13.30;99.90;;;;;;5031811;28;20029;-59
2021/12/31 00:38:15;;;;;;;10.77;3.00;;;13.30;99.90;;;;;;5033479;28;20029;-59
2021/12/31 00:40:41;;;;;;;10.77;3.35;;;13.30;99.90;;;;;;5032549;28;20040;-59
2021/12/31 00:43:06;;;;;;;13.13;3.42;;;13.30;99.90;;;;;;5031231;28;20029;-59
2021/12/31 00:45:36;;;;;;;8.20;3.00;;;13.30;99.90;;;;;;5032750;28;20030;-59
2021/12/31 00:48:02;;;;;;;11.40;3.00;;;13.30;99.90;;;;;;5031701;28;20079;-59
2021/12/31 00:50:28;;;;;;;8.18;3.22;;;13.30;99.90;;;;;;5032823;28;20036;-59
2021/12/31 00:52:54;;;;;;;9.13;3.40;;;13.30;99.90;;;;;;5033245;28;20479;-59
2021/12/31 00:55:20;;;;;;;9.85;3.22;;;13.30;99.90;;;;;;5033366;28;20029;-59
2021/12/31 00:57:46;;;;;;;9.80;3.20;;;13.20;99.90;;;;;;5031338;28;20034;-59
2021/12/31 01:00:14;;;;;;;7.97;3.45;;;13.30;99.90;;;;;;5032581;28;20519;-59
2021/12/31 01:02:40;;;;;;;10.07;3.22;;;13.30;99.90;;;;;;5032595;28;20127;-59
2021/12/31 01:05:06;;;;;;;13.57;3.60;;;13.20;99.90;;;;;;5032479;28;20025;-59
2021/12/31 01:07:32;;;;;;;11.38;3.72;;;13.20;99.90;;;;;;5032426;28;20025;-59
2021/12/31 01:10:00;;;;;;;7.95;2.60;;;13.30;99.90;;;;;;5032353;28;20550;-59
2021/12/31 01:12:26;;;;;;;13.38;3.60;;;13.30;99.90;;;;;;5032221;28;20055;-59
2021/12/31 01:15:00;;;;;;;12.88;3.45;;;13.30;99.90;;;;;;5032466;28;20029;-59
2021/12/31 01:20:11;;;;;;;10.43;3.50;;;13.20;99.90;;;;;;5032816;28;20036;-59
2021/12/31 01:22:37;;;;;;;11.13;2.85;;;13.20;99.90;;;;;;5032563;28;20451;-59
2021/12/31 01:25:04;;;;;;;7.97;3.50;;;13.20;99.90;;;;;;5032949;28;20060;-59
2021/12/31 01:27:30;;;;;;;7.70;3.50;;;13.20;99.90;;;;;;5031304;28;20045;-59
2021/12/31 01:29:56;;;;;;;15.68;3.92;;;13.20;99.90;;;;;;5032067;28;20035;-59
2021/12/31 01:32:22;;;;;;;9.40;3.40;;;13.10;99.90;;;;;;5031770;28;20026;-59
2021/12/31 01:34:48;;;;;;;11.85;4.03;;;13.20;99.90;;;;;;5031830;28;20059;-59
2021/12/31 01:37:14;;;;;;;8.90;3.60;;;13.10;99.90;;;;;;5032175;28;20034;-59
2021/12/31 01:39:39;;;;;;;13.70;4.82;;;13.10;99.90;;;;;;5031757;28;20041;-59
2021/12/31 01:42:12;;;;;;;9.07;3.90;;;13.00;99.90;;;;;;5032172;28;20029;-59
2021/12/31 01:44:42;;;;;;;10.73;4.20;;;13.00;99.90;;;;;;5032317;28;20505;-59
2021/12/31 01:47:12;;;;;;;9.30;4.28;;;12.90;99.90;;;;;;5030780;28;20025;-59
2021/12/31 01:49:53;;;;;;;12.40;4.05;;;12.90;99.90;;;;;;5031940;28;20025;-59
2021/12/31 01:52:18;;;;;;;7.55;3.25;;;12.90;99.90;;;;;;5032490;28;20021;-59
2021/12/31 01:54:44;;;;;;;9.85;4.53;;;12.80;99.90;;;;;;5031977;28;20030;-59
2021/12/31 01:57:10;;;;;;;10.10;4.13;;;12.80;99.90;;;;;;5030771;28;20522;-59
2021/12/31 01:59:37;;;;;;;13.63;4.53;;;12.80;99.90;;;;;;5031817;28;20104;-59
2021/12/31 02:02:06;;;;;;;14.93;4.80;;;12.70;99.90;;;;;;5032097;28;20022;-59
2021/12/31 02:04:33;;;;;;;11.02;3.95;;;12.70;99.90;;;;;;5032236;28;20535;-59
2021/12/31 02:06:59;;;;;;;12.27;4.85;;;12.70;99.90;;;;;;5031410;28;20105;-59
2021/12/31 02:09:25;;;;;;;14.10;4.47;;;12.70;99.90;;;;;;5031520;28;20463;-60
2021/12/31 02:11:53;;;;;;;10.52;4.18;;;12.70;99.90;;;;;;5029976;28;20033;-59
2021/12/31 02:14:20;;;;;;;12.60;4.60;;;12.60;99.90;;;;;;5031719;28;20367;-59
2021/12/31 02:16:46;;;;;;;9.48;4.32;;;12.60;99.90;;;;;;5031644;28;20075;-59
2021/12/31 02:19:14;;;;;;;10.25;3.92;;;12.50;99.90;;;;;;5031616;28;20033;-59
2021/12/31 02:21:44;;;;;;;11.30;4.53;;;12.60;99.90;;;;;;5031287;28;20029;-59
2021/12/31 02:24:11;;;;;;;16.40;5.25;;;12.50;99.90;;;;;;5030293;28;20044;-59
2021/12/31 02:26:37;;;;;;;12.52;5.47;;;12.50;99.90;;;;;;5031228;28;20041;-59
2021/12/31 02:29:03;;;;;;;9.15;4.25;;;12.50;99.90;;;;;;5031420;28;20071;-59
2021/12/31 02:31:30;;;;;;;11.05;5.07;;;12.50;99.90;;;;;;5031612;28;20445;-59
2021/12/31 02:33:56;;;;;;;10.85;4.85;;;12.50;99.90;;;;;;5031623;28;20041;-59
2021/12/31 02:36:22;;;;;;;12.05;5.00;;;12.40;99.90;;;;;;5031093;28;20030;-59
2021/12/31 02:38:49;;;;;;;12.63;4.97;;;12.40;99.90;;;;;;5031462;28;20080;-59
2021/12/31 02:41:15;;;;;;;10.55;5.07;;;12.40;99.90;;;;;;5030567;28;20040;-59
2021/12/31 02:43:41;;;;;;;11.57;4.60;;;12.30;99.90;;;;;;5032107;28;20047;-59
2021/12/31 02:46:06;;;;;;;16.83;6.05;;;12.40;99.90;;;;;;5034459;28;20052;-59
2021/12/31 02:48:32;;;;;;;14.85;5.47;;;12.40;99.90;;;;;;5035382;28;20458;-59
2021/12/31 02:51:00;;;;;;;14.40;5.35;;;12.40;99.90;;;;;;5034855;28;20076;-59
2021/12/31 02:53:40;;;;;;;10.32;5.32;;;12.40;99.90;;;;;;5035065;28;20091;-59
2021/12/31 02:56:10;;;;;;;13.75;5.70;;;12.40;99.90;;;;;;5035079;28;20438;-59
2021/12/31 02:58:37;;;;;;;11.32;5.20;;;12.30;99.90;;;;;;5035104;28;20440;-59
2021/12/31 03:01:05;;;;;;;12.50;5.55;;;12.30;99.90;;;;;;5034920;28;20029;-59
2021/12/31 03:03:33;;;;;;;13.65;5.85;;;12.20;99.90;;;;;;5034663;28;20032;-59
2021/12/31 03:05:59;;;;;;;14.32;5.00;;;12.20;99.90;;;;;;5034940;28;20018;-59
2021/12/31 03:08:29;;;;;;;12.32;5.40;;;12.10;99.90;;;;;;5033781;28;20079;-59
2021/12/31 03:10:56;;;;;;;13.32;4.88;;;12.20;99.90;;;;;;5034919;28;20091;-59
2021/12/31 03:13:23;;;;;;;13.90;5.63;;;12.10;99.90;;;;;;5033930;28;20030;-59
2021/12/31 03:15:50;;;;;;;11.82;6.15;;;12.00;99.90;;;;;;5034544;28;20030;-59
2021/12/31 03:18:18;;;;;;;11.30;5.32;;;12.00;99.90;;;;;;5033460;28;20460;-59
2021/12/31 03:20:57;;;;;;;10.55;5.22;;;12.00;99.90;;;;;;5034733;28;20029;-59
2021/12/31 03:23:24;;;;;;;10.77;5.78;;;12.00;99.90;;;;;;5035176;28;20024;-59
2021/12/31 03:25:49;;;;;;;12.20;5.22;;;12.00;99.90;;;;;;5034610;28;20398;-59
2021/12/31 03:28:15;;;;;;;11.80;5.93;;;12.00;99.90;;;;;;5034884;28;20025;-59
2021/12/31 03:30:41;;;;;;;13.73;5.60;;;12.00;99.90;;;;;;5034729;28;20288;-59
2021/12/31 03:33:06;;;;;;;9.23;4.85;;;12.00;99.90;;;;;;5035032;28;20025;-59
2021/12/31 03:35:32;;;;;;;10.73;5.32;;;11.90;99.90;;;;;;5034940;28;20025;-59
2021/12/31 03:37:58;;;;;;;8.52;4.68;;;11.90;99.90;;;;;;5034377;28;20465;-59
2021/12/31 03:40:23;;;;;;;7.43;4.75;;;11.90;99.90;;;;;;5032112;28;20076;-59
2021/12/31 03:42:49;;;;;;;12.90;5.32;;;11.90;99.90;;;;;;5033614;28;20096;-59
2021/12/31 03:45:15;;;;;;;10.88;5.22;;;11.90;99.90;;;;;;5034149;28;20490;-59
2021/12/31 03:47:40;;;;;;;14.00;5.82;;;11.90;99.90;;;;;;5032579;28;20053;-59
2021/12/31 03:50:06;;;;;;;10.70;5.18;;;11.90;99.90;;;;;;5033854;28;20449;-59
2021/12/31 03:52:37;;;;;;;8.60;5.28;;;11.90;99.90;;;;;;5032389;28;20037;-59
2021/12/31 03:55:04;;;;;;;11.90;4.82;;;11.90;99.90;;;;;;5033766;28;20032;-59
2021/12/31 03:57:30;;;;;;;9.27;4.80;;;11.90;99.90;;;;;;5032897;28;20026;-59
2021/12/31 03:59:55;;;;;;;11.45;5.30;;;11.90;99.90;;;;;;5034191;28;20109;-59
2021/12/31 04:02:21;;;;;;;9.40;4.72;;;11.80;99.90;;;;;;5034398;28;20025;-59
2021/12/31 04:04:47;;;;;;;10.35;5.28;;;11.80;99.90;;;;;;5033785;28;20021;-59
2021/12/31 04:07:12;;;;;;;8.10;4.32;;;11.80;99.90;;;;;;5032648;28;20037;-59
2021/12/31 04:09:38;;;;;;;11.07;4.63;;;11.80;99.90;;;;;;5033529;28;20518;-59
2021/12/31 04:12:04;;;;;;;9.63;4.55;;;11.80;99.90;;;;;;5033104;28;20018;-59
2021/12/31 04:14:29;;;;;;;9.43;4.70;;;11.80;99.90;;;;;;5032678;28;20021;-59
2021/12/31 04:16:55;;;;;;;7.35;4.10;;;11.90;99.90;;;;;;5033984;28;20453;-59
2021/12/31 04:19:21;;;;;;;10.07;4.50;;;11.90;99.90;;;;;;5034084;28;20486;-59
2021/12/31 04:21:49;;;;;;;10.07;4.28;;;11.90;99.90;;;;;;5033457;28;20035;-59
2021/12/31 04:24:26;;;;;;;10.30;4.82;;;11.90;99.90;;;;;;5033239;28;20125;-59
2021/12/31 04:26:52;;;;;;;9.18;5.03;;;11.80;99.90;;;;;;5031569;28;20044;-59
2021/12/31 04:29:18;;;;;;;11.35;4.60;;;11.80;99.90;;;;;;5032712;28;20550;-59
2021/12/31 04:31:43;;;;;;;9.35;3.90;;;11.80;99.90;;;;;;5033073;28;20030;-59
2021/12/31 04:34:09;;;;;;;7.47;4.22;;;11.70;99.90;;;;;;5031644;28;20570;-59
2021/12/31 04:36:34;;;;;;;8.05;3.83;;;11.80;99.90;;;;;;5032986;28;20032;-59
2021/12/31 04:39:00;;;;;;;7.28;4.25;;;11.70;99.90;;;;;;5033788;28;20116;-59
2021/12/31 04:41:26;;;;;;;8.88;4.03;;;11.80;99.90;;;;;;5032737;28;20032;-59
2021/12/31 04:43:51;;;;;;;11.30;4.38;;;11.80;99.90;;;;;;5032936;28;20029;-59
2021/12/31 04:46:17;;;;;;;10.35;4.32;;;11.80;99.90;;;;;;5032038;28;20504;-59
2021/12/31 04:48:43;;;;;;;8.27;4.07;;;11.80;99.90;;;;;;5033233;28;20018;-59
2021/12/31 04:51:08;;;;;;;7.13;3.60;;;11.80;99.90;;;;;;5032654;28;20029;-59
2021/12/31 04:53:34;;;;;;;8.70;3.60;;;11.70;99.90;;;;;;5033071;28;20037;-59
2021/12/31 04:56:00;;;;;;;5.38;3.05;;;11.80;99.90;;;;;;5033221;28;20021;-59
2021/12/31 04:58:26;;;;;;;7.32;3.17;;;11.80;99.90;;;;;;5032928;28;20049;-59
2021/12/31 05:00:52;;;;;;;7.72;3.20;;;11.80;99.90;;;;;;5033049;28;20075;-59
2021/12/31 05:03:17;;;;;;;6.65;3.30;;;11.80;99.90;;;;;;5033277;28;20018;-59
2021/12/31 05:05:43;;;;;;;7.80;3.15;;;11.80;99.90;;;;;;5032762;28;20018;-59
2021/12/31 05:08:08;;;;;;;9.40;2.80;;;11.90;99.90;;;;;;5032039;28;20033;-59
2021/12/31 05:10:34;;;;;;;6.40;2.53;;;11.90;99.90;;;;;;5031217;28;20143;-59
2021/12/31 05:13:02;;;;;;;6.18;2.50;;;12.00;99.90;;;;;;5033012;28;20036;-59
2021/12/31 05:15:32;;;;;;;6.53;2.50;;;12.00;99.90;;;;;;5032307;28;20089;-58
2021/12/31 05:17:57;;;;;;;6.72;3.03;;;12.00;99.90;;;;;;5032504;28;20079;-58
2021/12/31 05:20:23;;;;;;;10.05;2.90;;;12.00;99.90;;;;;;5032289;28;20383;-58
2021/12/31 05:22:49;;;;;;;5.32;2.92;;;11.90;99.90;;;;;;5032097;28;20025;-58
2021/12/31 05:25:16;;;;;;;5.20;2.80;;;11.90;99.90;;;;;;5032325;28;20056;-58
2021/12/31 05:27:42;;;;;;;4.70;2.05;;;11.90;99.90;;;;;;5032038;28;20029;-58
2021/12/31 05:30:08;;;;;;;7.97;2.50;;;11.90;99.90;;;;;;5032138;28;20048;-59
2021/12/31 05:32:34;;;;;;;6.30;2.90;;;11.90;99.90;;;;;;5030701;28;20394;-59
2021/12/31 05:34:59;;;;;;;7.65;2.72;;;11.90;99.90;;;;;;5032112;28;20021;-59
2021/12/31 05:37:25;;;;;;;6.57;2.85;;;11.90;99.90;;;;;;5032467;28;20029;-59
2021/12/31 05:39:50;;;;;;;6.63;2.42;;;11.90;99.90;;;;;;5032276;28;20441;-59
2021/12/31 05:42:16;;;;;;;6.45;2.50;;;11.90;99.90;;;;;;5031796;28;20025;-59
2021/12/31 05:44:42;;;;;;;5.60;2.90;;;11.90;99.90;;;;;;5032604;28;20100;-58
2021/12/31 05:47:08;;;;;;;8.40;2.50;;;11.90;99.90;;;;;;5032074;28;20501;-59
2021/12/31 05:49:33;;;;;;;6.75;2.70;;;11.90;99.90;;;;;;5032385;28;20093;-59
2021/12/31 05:51:59;;;;;;;7.10;2.70;;;11.90;99.90;;;;;;5031820;28;20029;-59
2021/12/31 05:54:24;;;;;;;6.00;3.13;;;11.80;99.90;;;;;;5030686;28;20509;-59
2021/12/31 05:56:51;;;;;;;6.03;2.50;;;11.80;99.90;;;;;;5030765;28;20252;-59
2021/12/31 05:59:17;;;;;;;6.80;2.50;;;11.90;99.90;;;;;;5032244;28;20538;-59
2021/12/31 06:01:42;;;;;;;4.20;2.33;;;11.90;99.90;;;;;;5031415;28;20045;-59
2021/12/31 06:04:08;;;;;;;7.68;2.80;;;11.90;99.90;;;;;;5030472;28;20045;-59
2021/12/31 06:06:34;;;;;;;9.63;2.33;;;11.80;99.90;;;;;;5031461;28;20368;-59
2021/12/31 06:08:59;;;;;;;6.25;2.83;;;11.80;99.90;;;;;;5031877;28;20479;-59
2021/12/31 06:11:25;;;;;;;4.50;2.17;;;11.80;99.90;;;;;;5030735;28;20022;-59
2021/12/31 06:14:00;;;;;;;5.68;2.90;;;11.70;99.90;;;;;;5030485;28;20056;-59
2021/12/31 06:16:26;;;;;;;5.72;2.60;;;11.70;99.90;;;;;;5029883;28;20047;-59
2021/12/31 06:18:52;;;;;;;4.47;2.72;;;11.70;99.90;;;;;;5031699;28;20033;-59
2021/12/31 06:21:18;;;;;;;3.83;2.53;;;11.70;99.90;;;;;;5030661;28;20032;-59
2021/12/31 06:23:43;;;;;;;6.00;3.10;;;11.60;99.90;;;;;;5031779;28;20506;-59
2021/12/31 06:26:10;;;;;;;10.85;2.70;;;11.50;99.90;;;;;;5029968;28;20053;-59
2021/12/31 06:28:35;;;;;;;5.25;2.88;;;11.50;99.90;;;;;;5031613;28;20675;-59
2021/12/31 06:31:01;;;;;;;8.35;2.83;;;11.50;99.90;;;;;;5031758;28;20033;-59
2021/12/31 06:33:27;;;;;;;8.43;3.10;;;11.50;99.90;;;;;;5031780;28;20079;-59
2021/12/31 06:35:52;;;;;;;5.57;3.33;;;11.50;99.90;;;;;;5031468;28;20115;-59
2021/12/31 06:38:18;;;;;;;4.85;2.50;;;11.50;99.90;;;;;;5031531;28;20029;-59
2021/12/31 06:40:44;;;;;;;8.77;3.28;;;11.50;99.90;;;;;;5030096;28;20487;-59
2021/12/31 06:43:09;;;;;;;3.50;2.35;;;11.50;99.90;;;;;;5031056;28;20026;-59
2021/12/31 06:45:35;;;;;;;6.85;3.05;;;11.50;99.90;;;;;;5031782;28;20455;-59
2021/12/31 06:48:01;;;;;;;4.38;3.00;;;11.50;99.90;;;;;;5031328;28;20025;-59
2021/12/31 06:50:27;;;;;;;5.82;2.75;;;11.50;99.90;;;;;;5031183;28;20029;-59
2021/12/31 06:52:53;;;;;;;3.60;2.70;;;11.50;99.90;;;;;;5030642;28;20155;-59
2021/12/31 06:55:19;;;;;;;7.75;3.20;;;11.50;99.90;;;;;;5031142;28;20506;-59
2021/12/31 06:57:46;;;;;;;5.53;3.03;;;11.50;99.90;;;;;;5031110;28;20038;-59
2021/12/31 07:00:13;;;;;;;6.30;2.97;;;11.40;99.90;;;;;;5029598;28;20031;-59
2021/12/31 07:02:38;;;;;;;6.68;2.97;;;11.50;99.90;;;;;;5031307;28;20030;-59
2021/12/31 07:05:04;;;;;;;4.60;2.15;;;11.50;99.90;;;;;;5030349;28;20438;-59
2021/12/31 07:07:30;;;;;;;5.85;3.13;;;11.50;99.90;;;;;;5031518;28;20033;-59
2021/12/31 07:09:56;;;;;;;8.30;3.00;;;11.50;99.90;;;;;;5031720;28;20021;-59
2021/12/31 07:12:21;;;;;;;6.55;2.63;;;11.50;99.90;;;;;;5029794;28;20095;-59
2021/12/31 07:14:47;;;;;;;7.88;3.10;;;11.40;99.90;;;;;;5030351;28;20052;-59
2021/12/31 07:17:12;;;;;;;6.70;2.90;;;11.50;99.90;;;;;;5031290;28;20028;-59
2021/12/31 07:19:38;;;;;;;7.95;3.28;;;11.50;99.90;;;;;;5031851;28;20518;-59
2021/12/31 07:22:04;;;;;;;5.20;3.10;;;11.40;99.90;;;;;;5031231;28;20022;-59
2021/12/31 07:24:29;;;;;;;6.30;3.20;;;11.50;99.90;;;;;;5031087;28;20083;-59
2021/12/31 07:26:55;;;;;;;5.13;3.05;;;11.50;99.90;;;;;;5030812;28;20053;-59
2021/12/31 07:29:20;;;;;;;4.55;2.78;;;11.50;99.90;;;;;;5030396;28;20025;-59
2021/12/31 07:31:46;;;;;;;4.63;2.95;;;11.50;99.90;;;;;;5034057;28;20132;-59
2021/12/31 07:34:12;;;;;;;9.43;2.92;;;11.40;99.90;;;;;;5034358;28;20057;-59
2021/12/31 07:36:37;;;;;;;5.15;3.05;;;11.40;99.90;;;;;;5033912;28;20100;-59
2021/12/31 07:39:07;;;;;;;5.85;3.03;;;11.50;99.90;;;;;;5033023;28;20032;-59
2021/12/31 07:41:33;;;;;;;6.45;3.03;;;11.40;99.90;;;;;;5032793;28;20036;-59
2021/12/31 07:43:59;;;;;;;6.43;2.95;;;11.40;99.90;;;;;;5035031;28;20029;-60
2021/12/31 07:46:25;;;;;;;6.88;2.97;;;11.50;99.90;;;;;;5034136;28;20030;-59
2021/12/31 07:48:51;;;;;;;5.88;3.22;;;11.40;99.90;;;;;;5034288;28;20033;-59
2021/12/31 07:51:17;;;;;;;5.57;3.28;;;11.40;99.90;;;;;;5033796;28;20039;-59
2021/12/31 07:53:42;;;;;;;4.22;3.10;;;11.40;99.90;;;;;;5034712;28;20029;-59
2021/12/31 07:56:08;;;;;;;7.03;3.30;;;11.40;99.90;;;;;;5033082;28;20038;-59
2021/12/31 07:58:34;;;;;;;6.20;3.35;;;11.40;99.90;;;;;;5034056;28;20415;-59
2021/12/31 08:00:59;;;;;;;6.90;3.17;;;11.50;99.90;;;;;;5034264;28;20446;-59
2021/12/31 08:03:25;;;;;;;5.95;3.15;;;11.50;99.90;;;;;;5032911;28;20478;-59
2021/12/31 08:05:51;;;;;;;6.15;3.63;;;11.50;99.90;;;;;;5033269;28;20044;-59
2021/12/31 08:08:17;;;;;;;6.68;3.30;;;11.50;99.90;;;;;;5038083;28;20009;-59
2021/12/31 08:10:42;;;;;;;10.40;3.50;;;11.50;99.90;;;;;;5034295;28;20029;-59
2021/12/31 08:13:08;;;;;;;5.75;3.30;;;11.50;99.90;;;;;;5034804;28;20034;-59
2021/12/31 08:15:34;;;;;;;4.97;3.00;;;11.50;99.90;;;;;;5033181;28;20034;-59
2021/12/31 08:18:00;;;;;;;6.10;3.17;;;11.50;99.90;;;;;;5033920;28;20383;-59
2021/12/31 08:20:26;;;;;;;4.95;2.72;;;11.60;99.90;;;;;;5033437;28;20061;-59
2021/12/31 08:22:52;;;;;;;6.22;3.08;;;11.60;99.90;;;;;;5033320;28;20021;-59
2021/12/31 08:25:18;;;;;;;8.07;3.95;;;11.60;99.90;;;;;;5034542;28;20032;-59
2021/12/31 08:27:44;;;;;;;5.47;3.10;;;11.70;99.90;;;;;;5033656;28;20368;-59
2021/12/31 08:30:11;;;;;;;3.35;2.70;;;11.70;99.90;;;;;;5033368;28;20028;-59
2021/12/31 08:32:37;;;;;;;6.70;2.83;;;11.70;99.90;;;;;;5033588;28;20486;-59
2021/12/31 08:35:04;;;;;;;5.22;2.67;;;11.70;99.90;;;;;;5033885;28;20040;-59
2021/12/31 08:37:30;;;;;;;5.32;2.90;;;11.70;99.90;;;;;;5032196;28;20022;-59
2021/12/31 08:39:57;;;;;;;4.22;2.70;;;11.80;99.90;;;;;;5032797;28;20025;-59
2021/12/31 08:42:23;;;;;;;6.38;2.95;;;11.70;99.90;;;;;;5032438;28;20100;-59
2021/12/31 08:44:49;;;;;;;4.68;2.78;;;11.70;99.90;;;;;;5034203;28;20064;-59
2021/12/31 08:47:14;;;;;;;4.75;2.83;;;11.70;99.90;;;;;;5032310;28;20084;-59
2021/12/31 08:49:40;;;;;;;5.28;2.70;;;11.70;99.90;;;;;;5033601;28;20122;-59
2021/12/31 08:52:05;;;;;;;5.72;3.08;;;11.80;99.90;;;;;;5033737;28;20053;-59
2021/12/31 08:54:31;;;;;;;4.93;2.95;;;11.80;99.90;;;;;;5033605;28;20033;-59
2021/12/31 08:56:58;;;;;;;9.77;3.25;;;11.80;99.90;;;;;;5032651;28;20029;-59
2021/12/31 08:59:24;;;;;;;4.40;2.67;;;11.70;99.90;;;;;;5032926;28;20383;-59
2021/12/31 09:01:49;;;;;;;6.50;2.70;;;11.80;99.90;;;;;;5031310;28;20022;-59
2021/12/31 09:04:15;;;;;;;5.28;2.80;;;11.80;99.90;;;;;;5032574;28;20076;-59
2021/12/31 09:06:41;;;;;;;3.17;2.75;;;11.80;99.90;;;;;;5033485;28;20025;-59
2021/12/31 09:09:06;;;;;;;10.30;3.38;;;11.80;99.90;;;;;;5032658;28;20057;-59
2021/12/31 09:11:32;;;;;;;4.88;2.63;;;11.80;99.90;;;;;;5032432;28;20322;-59
2021/12/31 09:13:58;;;;;;;7.38;2.50;;;11.90;99.90;;;;;;5033078;28;20032;-59
2021/12/31 09:16:24;;;;;;;5.45;2.38;;;11.90;99.90;;;;;;5032885;28;20033;-59
2021/12/31 09:18:50;;;;;;;6.60;2.85;;;11.90;99.90;;;;;;5032491;28;20421;-59
2021/12/31 09:21:17;;;;;;;4.72;2.72;;;11.90;99.90;;;;;;5032826;28;20022;-59
2021/12/31 09:23:44;;;;;;;13.52;3.70;;;11.90;99.90;;;;;;5032296;28;20043;-60
2021/12/31 09:26:11;;;;;;;6.80;3.00;;;11.90;99.90;;;;;;5031792;28;20099;-59
2021/12/31 09:28:36;;;;;;;6.95;3.30;;;11.90;99.90;;;;;;5032317;28;20435;-59
2021/12/31 09:31:03;;;;;;;5.63;2.90;;;11.90;99.90;;;;;;5032248;28;20029;-59
2021/12/31 09:33:29;;;;;;;9.05;3.05;;;11.90;99.90;;;;;;5032506;28;20060;-59
2021/12/31 09:35:55;;;;;;;9.50;3.28;;;11.90;99.90;;;;;;5032304;28;20853;-59
2021/12/31 09:38:21;;;;;;;6.70;2.40;;;11.90;99.90;;;;;;5032114;28;20026;-59
2021/12/31 09:40:47;;;;;;;7.72;3.53;;;11.90;99.90;;;;;;5030435;28;20071;-59
2021/12/31 09:43:13;;;;;;;5.88;2.60;;;11.90;99.90;;;;;;5031940;28;20391;-59
2021/12/31 09:45:41;;;;;;;6.57;2.78;;;11.90;99.90;;;;;;5030969;28;20025;-59
2021/12/31 09:48:23;;;;;;;5.95;2.45;;;11.90;99.90;;;;;;5031622;28;20410;-59
2021/12/31 09:50:57;;;;;;;6.10;2.83;;;12.00;99.90;;;;;;5030951;28;20116;-59
2021/12/31 09:53:26;;;;;;;3.80;2.70;;;11.90;99.90;;;;;;5031667;28;20492;-59
2021/12/31 09:55:54;;;;;;;8.20;2.67;;;12.00;99.90;;;;;;5030559;28;20029;-59
2021/12/31 09:58:22;;;;;;;5.15;3.00;;;12.00;99.90;;;;;;5031226;28;20064;-59
2021/12/31 10:00:50;;;;;;;4.47;2.78;;;12.00;99.90;;;;;;5031620;28;20057;-59
2021/12/31 10:03:22;;;;;;;8.48;2.92;;;12.10;99.90;;;;;;5031776;28;20059;-59
2021/12/31 10:06:04;;;;;;;5.15;2.45;;;12.20;99.90;;;;;;5031153;28;20021;-59
2021/12/31 10:08:38;;;;;;;7.97;3.10;;;12.20;99.90;;;;;;5030140;28;20447;-59
2021/12/31 10:11:20;;;;;;;7.00;2.92;;;12.20;99.90;;;;;;5032068;28;20025;-59
2021/12/31 10:13:53;;;;;;;4.47;2.78;;;12.40;99.90;;;;;;5032031;28;20029;-60
2021/12/31 10:16:24;;;;;;;4.85;2.60;;;12.70;99.90;;;;;;5030152;28;20029;-59
2021/12/31 10:19:03;;;;;;;3.75;2.42;;;12.80;99.90;;;;;;5031701;28;20040;-60
2021/12/31 10:21:35;;;;;;;4.00;2.28;;;13.00;99.90;;;;;;5031147;28;20108;-59
2021/12/31 10:24:35;;;;;;;4.57;2.63;;;13.50;99.90;;;;;;5030919;28;20386;-59
2021/12/31 10:27:21;;;;;;;4.70;2.45;;;13.70;99.90;;;;;;5031175;28;20045;-59
2021/12/31 10:30:06;;;;;;;3.83;2.65;;;13.50;99.90;;;;;;5031068;28;20030;-60
2021/12/31 10:32:33;;;;;;;6.78;3.17;;;13.30;99.90;;;;;;5031023;28;20104;-59
2021/12/31 10:35:20;;;;;;;8.40;3.25;;;13.20;99.90;;;;;;5031205;28;20018;-60
2021/12/31 10:37:52;;;;;;;6.03;2.60;;;13.00;99.90;;;;;;5029903;28;20021;-59
2021/12/31 10:40:27;;;;;;;7.57;2.95;;;12.90;99.90;;;;;;5030785;28;20039;-59
2021/12/31 10:43:21;;;;;;;5.40;3.17;;;12.90;99.90;;;;;;5029482;28;20363;-59
2021/12/31 10:46:08;;;;;;;6.30;3.25;;;12.70;99.90;;;;;;5030072;28;20025;-60
2021/12/31 10:48:48;;;;;;;5.10;2.72;;;12.80;99.90;;;;;;5034067;28;20025;-60
2021/12/31 10:51:35;;;;;;;5.65;2.83;;;12.90;99.90;;;;;;5033717;28;20022;-60
2021/12/31 10:54:44;;;;;;;7.40;3.15;;;13.00;99.90;;;;;;5033670;28;20041;-60
2021/12/31 10:57:09;;;;;;;6.03;3.00;;;13.10;99.90;;;;;;5031114;28;20490;-59
2021/12/31 10:59:37;;;;;;;5.15;3.20;;;13.10;99.90;;;;;;5031106;28;20040;-59
2021/12/31 11:02:04;;;;;;;5.97;3.58;;;13.10;99.90;;;;;;5031469;28;20086;-60
2021/12/31 11:04:32;;;;;;;6.30;3.03;;;13.20;99.90;;;;;;5031192;28;20021;-60
2021/12/31 11:07:00;;;;;;;6.82;3.28;;;13.20;99.90;;;;;;5033734;28;20029;-60
2021/12/31 11:09:28;;;;;;;4.43;2.80;;;13.20;99.90;;;;;;5035300;28;20018;-60
2021/12/31 11:11:55;;;;;;;3.47;2.70;;;13.30;99.90;;;;;;5034998;28;20025;-59
2021/12/31 11:14:21;;;;;;;6.78;3.03;;;13.40;99.90;;;;;;5035540;28;20021;-59
2021/12/31 11:16:46;;;;;;;4.45;2.60;;;13.50;99.90;;;;;;5034687;28;20032;-59
2021/12/31 11:19:12;;;;;;;5.38;3.13;;;13.50;99.90;;;;;;5035382;28;20434;-60
2021/12/31 11:21:39;;;;;;;5.85;3.30;;;13.40;99.90;;;;;;5034881;28;20125;-60
2021/12/31 11:24:27;;;;;;;5.43;2.70;;;13.40;99.90;;;;;;5034718;28;20076;-60
2021/12/31 11:26:53;;;;;;;5.38;2.78;;;13.40;99.90;;;;;;5034313;28;20040;-60
2021/12/31 11:29:18;;;;;;;3.30;2.30;;;13.90;99.90;;;;;;5033913;28;20051;-60
2021/12/31 11:31:44;;;;;;;4.85;2.00;;;14.40;99.90;;;;;;5033846;28;20486;-60
2021/12/31 11:34:13;;;;;;;6.70;3.03;;;14.60;99.90;;;;;;5034188;28;20092;-60
2021/12/31 11:36:43;;;;;;;4.25;2.38;;;15.00;99.90;;;;;;5034082;28;20057;-60
2021/12/31 11:39:29;;;;;;;3.35;2.40;;;15.10;99.90;;;;;;5034643;28;20071;-60
2021/12/31 11:42:06;;;;;;;5.10;2.85;;;15.30;99.90;;;;;;5033661;28;20036;-60
2021/12/31 11:44:33;;;;;;;3.88;3.00;;;15.60;99.90;;;;;;5032991;28;20026;-60
2021/12/31 11:47:12;;;;;;;4.80;2.55;;;15.20;99.90;;;;;;5034244;28;20096;-60
2021/12/31 11:49:38;;;;;;;6.10;2.45;;;15.20;99.90;;;;;;5033885;28;20156;-60
2021/12/31 11:52:08;;;;;;;3.20;2.13;;;15.50;99.90;;;;;;5033927;28;20467;-60
2021/12/31 11:54:37;;;;;;;5.70;2.90;;;14.90;99.90;;;;;;5033987;28;20040;-60
2021/12/31 11:57:25;;;;;;;4.60;2.75;;;14.20;99.90;;;;;;5032745;28;20487;-60
2021/12/31 11:59:53;;;;;;;4.00;2.30;;;14.60;99.90;;;;;;5032735;28;20041;-60
2021/12/31 12:02:21;;;;;;;6.65;2.60;;;15.40;99.90;;;;;;5033587;28;20078;-60
2021/12/31 12:04:59;;;;;;;4.28;2.72;;;15.80;99.90;;;;;;5034887;28;20440;-60
2021/12/31 12:07:32;;;;;;;4.65;2.38;;;16.40;99.90;;;;;;5033513;28;20026;-60
2021/12/31 12:09:58;;;;;;;2.83;2.28;;;16.90;99.90;;;;;;5034310;28;20025;-60
2021/12/31 12:12:29;;;;;;;5.40;2.72;;;16.70;99.90;;;;;;5033529;28;20438;-61
2021/12/31 12:14:56;;;;;;;4.93;2.58;;;17.10;99.90;;;;;;5032441;28;20017;-60
2021/12/31 12:17:28;;;;;;;4.45;2.58;;;16.70;99.90;;;;;;5034308;28;20506;-60
2021/12/31 12:19:57;;;;;;;4.23;2.10;;;16.70;99.90;;;;;;5034173;28;20148;-60
2021/12/31 12:22:53;;;;;;;6.28;2.67;;;16.60;99.90;;;;;;5034349;28;20025;-60
2021/12/31 12:25:24;;;;;;;4.93;2.55;;;16.70;99.90;;;;;;5032904;28;20021;-61
2021/12/31 12:27:56;;;;;;;7.53;2.42;;;17.20;99.90;;;;;;5032485;28;20030;-60
2021/12/31 12:30:23;;;;;;;4.03;2.20;;;17.40;99.90;;;;;;5030989;28;20504;-60
2021/12/31 12:33:04;;;;;;;5.90;2.85;;;17.20;99.90;;;;;;5032839;28;20068;-60
2021/12/31 12:35:33;;;;;;;3.85;2.55;;;16.60;99.90;;;;;;5032710;28;20368;-60
2021/12/31 12:38:05;;;;;;;5.78;2.53;;;16.70;99.90;;;;;;5033307;28;20802;-60
2021/12/31 12:40:37;;;;;;;8.30;2.72;;;16.80;99.90;;;;;;5032070;28;20022;-60
2021/12/31 12:43:17;;;;;;;4.78;2.55;;;16.80;99.90;;;;;;5033262;28;20021;-60
2021/12/31 12:45:47;;;;;;;6.15;2.80;;;16.20;99.90;;;;;;5032293;28;20112;-60
2021/12/31 12:48:12;;;;;;;6.45;2.80;;;15.80;99.90;;;;;;5033353;28;20017;-60
2021/12/31 12:50:45;;;;;;;5.93;2.88;;;15.40;99.90;;;;;;5033016;28;20518;-60